Time;durP1;ratioP1;P1;durP2;ratioP2;P2;SDS_P1;SDS_P2;PMS_P1;PMS_P2;Temp;Humidity;BMP_temperature;BMP_pressure;BME280_temperature;BME280_humidity;BME280_pressure;Samples;Min_cycle;Max_cycle;Signal;HPM_P1;HPM_P2
2021/10/05 00:01:52;;;;;;;3.47;1.90;;;14.20;99.90;;;;;;5094430;28;20034;-81
2021/10/05 00:04:18;;;;;;;4.28;1.95;;;14.20;99.90;;;;;;5096290;28;20039;-81
2021/10/05 00:06:43;;;;;;;4.40;1.98;;;14.20;99.90;;;;;;5075445;28;20060;-81
2021/10/05 00:09:09;;;;;;;2.85;2.20;;;14.10;99.90;;;;;;5075772;28;20028;-81
2021/10/05 00:11:35;;;;;;;3.72;2.50;;;14.10;99.90;;;;;;5075604;28;20377;-81
2021/10/05 00:14:01;;;;;;;5.47;2.30;;;14.10;99.90;;;;;;5074400;28;20534;-81
2021/10/05 00:16:26;;;;;;;10.75;2.60;;;14.00;99.90;;;;;;5074976;28;20042;-81
2021/10/05 00:18:52;;;;;;;4.35;2.35;;;14.00;99.90;;;;;;5074583;28;20179;-81
2021/10/05 00:21:19;;;;;;;3.58;2.55;;;14.00;99.90;;;;;;5075806;28;20062;-81
2021/10/05 00:23:45;;;;;;;3.50;2.42;;;14.00;99.90;;;;;;5075469;28;20029;-81
2021/10/05 00:26:11;;;;;;;5.18;2.35;;;14.00;99.90;;;;;;5075906;28;20048;-81
2021/10/05 00:28:37;;;;;;;4.88;2.40;;;14.10;99.90;;;;;;5073668;28;20461;-81
2021/10/05 00:31:03;;;;;;;3.33;2.47;;;14.10;99.90;;;;;;5073999;28;20032;-81
2021/10/05 00:33:29;;;;;;;2.45;2.22;;;14.10;99.90;;;;;;5073736;28;20042;-80
2021/10/05 00:35:54;;;;;;;4.03;2.20;;;14.10;99.90;;;;;;5073111;28;20036;-81
2021/10/05 00:38:20;;;;;;;2.38;2.10;;;14.10;99.90;;;;;;5089780;28;20036;-79
2021/10/05 00:40:45;;;;;;;3.08;2.55;;;14.10;99.90;;;;;;5094398;28;20032;-81
2021/10/05 00:43:11;;;;;;;6.25;2.28;;;14.10;99.90;;;;;;5075643;28;20051;-81
2021/10/05 00:45:37;;;;;;;3.40;2.25;;;14.10;99.90;;;;;;5107634;28;20489;-81
2021/10/05 00:48:04;;;;;;;4.18;2.40;;;14.00;99.90;;;;;;5074379;28;20039;-81
2021/10/05 00:50:31;;;;;;;4.80;2.47;;;14.00;99.90;;;;;;5073775;28;20068;-80
2021/10/05 00:52:57;;;;;;;2.13;1.92;;;14.00;99.90;;;;;;5090628;28;20116;-81
2021/10/05 00:55:23;;;;;;;5.18;2.45;;;14.00;99.90;;;;;;5107723;28;20078;-81
2021/10/05 00:57:50;;;;;;;3.10;1.98;;;14.00;99.90;;;;;;5073381;28;20056;-81
2021/10/05 01:00:16;;;;;;;2.15;1.95;;;13.90;99.90;;;;;;5074760;28;20028;-81
2021/10/05 01:02:46;;;;;;;3.35;2.30;;;13.90;99.90;;;;;;5090390;28;20020;-80
2021/10/05 01:05:12;;;;;;;4.10;2.30;;;13.90;99.90;;;;;;5095124;28;20024;-81
2021/10/05 01:07:38;;;;;;;6.63;2.28;;;13.90;99.90;;;;;;5093572;28;20028;-81
2021/10/05 01:10:05;;;;;;;3.30;2.20;;;13.80;99.90;;;;;;5093901;28;20027;-81
2021/10/05 01:12:31;;;;;;;4.25;2.90;;;13.80;99.90;;;;;;5092987;28;20036;-80
2021/10/05 01:14:56;;;;;;;3.08;1.98;;;13.80;99.90;;;;;;5093493;28;20051;-79
2021/10/05 01:17:22;;;;;;;6.60;2.58;;;13.90;99.90;;;;;;5093608;28;20385;-80
2021/10/05 01:19:48;;;;;;;3.42;2.55;;;13.80;99.90;;;;;;5089074;28;20098;-81
2021/10/05 01:22:14;;;;;;;3.75;2.33;;;13.80;99.90;;;;;;5073717;28;20035;-80
2021/10/05 01:24:41;;;;;;;3.35;2.30;;;13.80;99.90;;;;;;5073117;28;20027;-81
2021/10/05 01:27:07;;;;;;;2.53;2.30;;;13.80;99.90;;;;;;5073449;28;20445;-81
2021/10/05 01:29:34;;;;;;;5.10;2.60;;;13.80;99.90;;;;;;5081979;28;20044;-81
2021/10/05 01:32:03;;;;;;;3.97;2.30;;;13.80;99.90;;;;;;5087524;28;20038;-80
2021/10/05 01:34:29;;;;;;;3.95;2.50;;;13.80;99.90;;;;;;5086904;28;20032;-81
2021/10/05 01:36:58;;;;;;;2.75;2.25;;;13.80;99.90;;;;;;5072734;28;20491;-81
2021/10/05 01:39:33;;;;;;;3.28;2.30;;;13.80;99.90;;;;;;5073269;28;20059;-81
2021/10/05 01:42:10;;;;;;;3.88;2.20;;;13.80;99.90;;;;;;5074018;28;20032;-80
2021/10/05 01:44:36;;;;;;;5.55;2.75;;;13.80;99.90;;;;;;5089579;28;20098;-84
2021/10/05 01:47:04;;;;;;;3.40;2.30;;;13.70;99.90;;;;;;5094460;28;20035;-81
2021/10/05 01:49:30;;;;;;;3.47;2.55;;;13.80;99.90;;;;;;5094572;28;20413;-80
2021/10/05 01:51:56;;;;;;;3.03;2.40;;;13.80;99.90;;;;;;5092584;28;20036;-81
2021/10/05 01:54:21;;;;;;;6.05;3.05;;;13.80;99.90;;;;;;5093073;28;20095;-80
2021/10/05 01:56:48;;;;;;;4.10;2.55;;;13.80;99.90;;;;;;5092741;28;20048;-81
2021/10/05 01:59:15;;;;;;;2.92;2.20;;;13.70;99.90;;;;;;5092973;28;20083;-81
2021/10/05 02:01:41;;;;;;;4.22;2.45;;;13.80;99.90;;;;;;5092511;28;20032;-82
2021/10/05 02:04:09;;;;;;;4.95;2.80;;;13.80;99.90;;;;;;5088315;28;20568;-81
2021/10/05 02:06:35;;;;;;;3.25;2.22;;;13.90;99.90;;;;;;5072754;28;20105;-81
2021/10/05 02:09:02;;;;;;;3.42;2.55;;;13.90;99.90;;;;;;5072405;28;20043;-81
2021/10/05 02:11:28;;;;;;;5.65;2.60;;;13.90;99.90;;;;;;5106419;28;20127;-80
2021/10/05 02:13:53;;;;;;;5.20;2.63;;;13.90;99.90;;;;;;5106162;28;20067;-79
2021/10/05 02:16:19;;;;;;;4.50;2.70;;;13.80;99.90;;;;;;5093400;28;20495;-80
2021/10/05 02:18:48;;;;;;;4.28;2.58;;;13.80;99.90;;;;;;5088956;28;20032;-80
2021/10/05 02:21:15;;;;;;;4.60;3.10;;;13.70;99.90;;;;;;5073042;28;20036;-81
2021/10/05 02:26:25;;;;;;;4.40;2.85;;;13.60;99.90;;;;;;5073888;28;20531;-81
2021/10/05 02:28:50;;;;;;;5.00;2.92;;;13.60;99.90;;;;;;5073037;28;20021;-81
2021/10/05 02:31:16;;;;;;;4.03;3.17;;;13.60;99.90;;;;;;5072614;28;20077;-81
2021/10/05 02:33:42;;;;;;;5.53;3.15;;;13.60;99.90;;;;;;5088863;28;20035;-81
2021/10/05 02:36:07;;;;;;;4.75;2.90;;;13.60;99.90;;;;;;5073638;28;20037;-81
2021/10/05 02:38:33;;;;;;;4.72;2.60;;;13.60;99.90;;;;;;5073863;28;20032;-81
2021/10/05 02:40:59;;;;;;;6.13;2.83;;;13.60;99.90;;;;;;5072412;28;20027;-81
2021/10/05 02:43:24;;;;;;;5.78;2.80;;;13.60;99.90;;;;;;5072805;28;20030;-81
2021/10/05 02:45:50;;;;;;;5.18;2.78;;;13.60;99.90;;;;;;5072546;28;20457;-81
2021/10/05 02:48:16;;;;;;;7.85;3.20;;;13.60;99.90;;;;;;5072693;28;20056;-81
2021/10/05 02:50:41;;;;;;;3.53;2.67;;;13.70;99.90;;;;;;5073417;28;20048;-85
2021/10/05 02:53:07;;;;;;;5.78;3.28;;;13.70;99.90;;;;;;5074352;28;20033;-81
2021/10/05 02:55:33;;;;;;;4.55;3.40;;;13.70;99.90;;;;;;5088350;28;20027;-81
2021/10/05 02:57:58;;;;;;;6.63;3.28;;;13.70;99.90;;;;;;5096676;28;20060;-81
2021/10/05 03:00:24;;;;;;;6.15;3.28;;;13.70;99.90;;;;;;5096337;28;20071;-81
2021/10/05 03:02:50;;;;;;;5.40;3.25;;;13.70;99.90;;;;;;5096855;28;20027;-81
2021/10/05 03:05:15;;;;;;;5.55;3.28;;;13.60;99.90;;;;;;5092381;28;20029;-81
2021/10/05 03:07:41;;;;;;;4.05;2.67;;;13.60;99.90;;;;;;5075779;28;20025;-84
2021/10/05 03:10:07;;;;;;;5.40;2.92;;;13.60;99.90;;;;;;5076166;28;20036;-81
2021/10/05 03:12:33;;;;;;;4.60;2.88;;;13.60;99.90;;;;;;5075980;28;20086;-81
2021/10/05 03:14:59;;;;;;;5.03;3.10;;;13.60;99.90;;;;;;5086311;28;20837;-81
2021/10/05 03:17:24;;;;;;;4.97;2.97;;;13.60;99.90;;;;;;5096838;28;20108;-80
2021/10/05 03:19:50;;;;;;;5.10;2.95;;;13.60;99.90;;;;;;5095072;28;20027;-81
2021/10/05 03:22:15;;;;;;;5.53;3.30;;;13.60;99.90;;;;;;5096843;28;20035;-81
2021/10/05 03:24:41;;;;;;;6.18;3.20;;;13.60;99.90;;;;;;5096820;28;20028;-84
2021/10/05 03:27:07;;;;;;;4.85;3.22;;;13.60;99.90;;;;;;5095562;28;20468;-81
2021/10/05 03:29:32;;;;;;;6.53;3.40;;;13.60;99.90;;;;;;5095904;28;20025;-79
2021/10/05 03:31:58;;;;;;;4.45;3.10;;;13.60;99.90;;;;;;5095467;28;20028;-81
2021/10/05 03:34:24;;;;;;;5.35;3.08;;;13.50;99.90;;;;;;5097032;28;20092;-81
2021/10/05 03:36:50;;;;;;;4.75;3.25;;;13.60;99.90;;;;;;5096116;28;20028;-81
2021/10/05 03:39:15;;;;;;;3.78;2.95;;;13.50;99.90;;;;;;5129908;27;20031;-81
2021/10/05 03:41:41;;;;;;;4.43;3.00;;;13.50;99.90;;;;;;5095411;28;20024;-83
2021/10/05 03:44:07;;;;;;;5.32;3.08;;;13.40;99.90;;;;;;5095349;28;20119;-81
2021/10/05 03:46:32;;;;;;;5.38;3.05;;;13.40;99.90;;;;;;5095581;28;20081;-81
2021/10/05 03:48:58;;;;;;;4.85;2.78;;;13.40;99.90;;;;;;5094873;28;20024;-81
2021/10/05 03:51:24;;;;;;;3.85;2.72;;;13.40;99.90;;;;;;5096572;28;20039;-81
2021/10/05 03:53:49;;;;;;;4.90;2.80;;;13.40;99.90;;;;;;5095339;28;20123;-81
2021/10/05 03:56:15;;;;;;;4.00;2.72;;;13.40;99.90;;;;;;5095308;28;20055;-81
2021/10/05 03:58:41;;;;;;;3.78;2.78;;;13.50;99.90;;;;;;5091987;28;20078;-81
2021/10/05 04:01:07;;;;;;;4.40;2.83;;;13.50;99.90;;;;;;5074620;28;20090;-81
2021/10/05 04:03:33;;;;;;;4.68;3.00;;;13.50;99.90;;;;;;5077108;28;20034;-81
2021/10/05 04:05:58;;;;;;;6.43;2.80;;;13.50;99.90;;;;;;5094809;28;20042;-81
2021/10/05 04:08:24;;;;;;;4.78;3.20;;;13.50;99.90;;;;;;5095327;28;20024;-80
2021/10/05 04:10:50;;;;;;;6.75;3.17;;;13.50;99.90;;;;;;5094396;28;20035;-81
2021/10/05 04:13:16;;;;;;;5.43;2.90;;;13.60;99.90;;;;;;5095189;28;20170;-81
2021/10/05 04:15:42;;;;;;;3.85;2.78;;;13.60;99.90;;;;;;5094941;28;20032;-81
2021/10/05 04:18:08;;;;;;;4.22;2.63;;;13.60;99.90;;;;;;5094826;28;20477;-81
2021/10/05 04:20:34;;;;;;;3.85;2.72;;;13.50;99.90;;;;;;5095005;28;20118;-80
2021/10/05 04:23:00;;;;;;;5.03;2.75;;;13.50;99.90;;;;;;5095172;28;20024;-81
2021/10/05 04:25:26;;;;;;;6.13;3.03;;;13.50;99.90;;;;;;5128983;27;20042;-81
2021/10/05 04:27:52;;;;;;;6.45;3.70;;;13.50;99.90;;;;;;5094013;28;20027;-81
2021/10/05 04:30:18;;;;;;;6.65;3.55;;;13.50;99.90;;;;;;5095718;28;20024;-81
2021/10/05 04:32:44;;;;;;;5.47;3.42;;;13.50;99.90;;;;;;5094296;28;20028;-84
2021/10/05 04:35:10;;;;;;;4.38;3.38;;;13.50;99.90;;;;;;5094567;28;20043;-80
2021/10/05 04:37:36;;;;;;;6.50;3.30;;;13.40;99.90;;;;;;5094026;28;20039;-81
2021/10/05 04:40:02;;;;;;;5.80;3.58;;;13.40;99.90;;;;;;5094773;28;20099;-81
2021/10/05 04:42:28;;;;;;;5.18;3.67;;;13.40;99.90;;;;;;5093711;28;20024;-81
2021/10/05 04:44:54;;;;;;;7.47;3.40;;;13.40;99.90;;;;;;5093468;28;20035;-81
2021/10/05 04:47:19;;;;;;;7.00;3.70;;;13.30;99.90;;;;;;5094109;28;20540;-81
2021/10/05 04:49:45;;;;;;;4.85;3.70;;;13.30;99.90;;;;;;5090438;28;20024;-81
2021/10/05 04:52:10;;;;;;;6.63;3.80;;;13.30;99.90;;;;;;5092926;28;20048;-80
2021/10/05 04:54:36;;;;;;;5.03;3.47;;;13.30;99.90;;;;;;5075470;28;20082;-81
2021/10/05 04:57:02;;;;;;;5.00;3.55;;;13.40;99.90;;;;;;5072857;28;20055;-81
2021/10/05 04:59:29;;;;;;;6.88;4.10;;;13.40;99.90;;;;;;5074297;28;20025;-81
2021/10/05 05:01:55;;;;;;;5.07;3.42;;;13.40;99.90;;;;;;5073183;28;20032;-81
2021/10/05 05:04:20;;;;;;;5.25;3.92;;;13.40;99.90;;;;;;5074549;28;20033;-81
2021/10/05 05:06:46;;;;;;;5.68;3.97;;;13.50;99.90;;;;;;5074735;28;20082;-83
2021/10/05 05:09:12;;;;;;;6.38;3.92;;;13.50;99.90;;;;;;5073782;28;20029;-81
2021/10/05 05:11:37;;;;;;;6.72;3.92;;;13.50;99.90;;;;;;5083948;28;20123;-81
2021/10/05 05:14:11;;;;;;;9.57;4.38;;;13.40;99.90;;;;;;5094396;28;20028;-81
2021/10/05 05:16:39;;;;;;;6.25;4.20;;;13.40;99.90;;;;;;5093577;28;20118;-80
2021/10/05 05:19:07;;;;;;;8.05;4.25;;;13.50;99.90;;;;;;5093343;28;20073;-81
2021/10/05 05:21:34;;;;;;;6.95;4.85;;;13.50;99.90;;;;;;5088169;28;20058;-81
2021/10/05 05:24:00;;;;;;;7.40;4.70;;;13.50;99.90;;;;;;5073102;28;20024;-81
2021/10/05 05:26:26;;;;;;;13.75;4.70;;;13.40;99.90;;;;;;5074413;28;20032;-81
2021/10/05 05:28:53;;;;;;;8.80;5.32;;;13.50;99.90;;;;;;5073065;28;20025;-82
2021/10/05 05:31:19;;;;;;;8.43;4.50;;;13.40;99.90;;;;;;5074417;28;20032;-81
2021/10/05 05:33:44;;;;;;;9.45;4.95;;;13.50;99.90;;;;;;5074509;28;20446;-80
2021/10/05 05:36:10;;;;;;;8.85;4.93;;;13.50;99.90;;;;;;5106921;28;20665;-80
2021/10/05 05:38:36;;;;;;;10.57;5.32;;;13.40;99.90;;;;;;5111009;28;20024;-80
2021/10/05 05:41:02;;;;;;;9.80;5.07;;;13.40;99.90;;;;;;5126974;27;20034;-81
2021/10/05 05:43:28;;;;;;;7.38;4.28;;;13.40;99.90;;;;;;5093722;28;20491;-80
2021/10/05 05:45:55;;;;;;;10.02;5.20;;;13.40;99.90;;;;;;5092588;28;20031;-82
2021/10/05 05:48:20;;;;;;;9.38;5.00;;;13.40;99.90;;;;;;5094091;28;20031;-81
2021/10/05 05:50:46;;;;;;;9.55;4.70;;;13.40;99.90;;;;;;5093224;28;20513;-81
2021/10/05 05:53:12;;;;;;;7.30;4.45;;;13.40;99.90;;;;;;5092422;28;20028;-81
2021/10/05 05:55:38;;;;;;;8.65;5.05;;;13.40;99.90;;;;;;5093158;28;20035;-80
2021/10/05 05:58:14;;;;;;;8.60;4.70;;;13.40;99.90;;;;;;5090422;28;20448;-81
2021/10/05 06:00:41;;;;;;;8.43;4.63;;;13.40;99.90;;;;;;5092904;28;20526;-80
2021/10/05 06:03:10;;;;;;;7.93;4.60;;;13.40;99.90;;;;;;5093264;28;20072;-81
2021/10/05 06:05:36;;;;;;;10.18;5.10;;;13.40;99.90;;;;;;5092567;28;20027;-81
2021/10/05 06:08:01;;;;;;;11.35;5.10;;;13.30;99.90;;;;;;5085040;28;20021;-81
2021/10/05 06:10:27;;;;;;;8.07;4.80;;;13.40;99.90;;;;;;5074956;28;20462;-81
2021/10/05 06:12:53;;;;;;;11.57;4.93;;;13.40;99.90;;;;;;5091561;28;20040;-84
2021/10/05 06:15:20;;;;;;;8.73;5.07;;;13.40;99.90;;;;;;5093954;28;20540;-81
2021/10/05 06:17:47;;;;;;;9.65;4.90;;;13.50;99.90;;;;;;5100458;28;20028;-82
2021/10/05 06:20:15;;;;;;;8.82;4.78;;;13.40;99.90;;;;;;5114012;28;20019;-80
2021/10/05 06:22:41;;;;;;;9.90;5.00;;;13.50;99.90;;;;;;5114145;28;20020;-80
2021/10/05 06:25:11;;;;;;;8.82;4.13;;;13.50;99.90;;;;;;5112653;28;20023;-80
2021/10/05 06:27:37;;;;;;;7.20;4.28;;;13.50;99.90;;;;;;5117650;28;20035;-80
2021/10/05 06:30:04;;;;;;;9.10;4.97;;;13.50;99.90;;;;;;5115988;28;20024;-80
2021/10/05 06:32:29;;;;;;;8.35;4.28;;;13.50;99.90;;;;;;5111745;28;20024;-81
2021/10/05 06:34:55;;;;;;;7.43;4.45;;;13.60;99.90;;;;;;5096671;28;20040;-81
2021/10/05 06:37:21;;;;;;;9.48;5.18;;;13.60;99.90;;;;;;5096636;28;20043;-81
2021/10/05 06:39:46;;;;;;;8.80;5.22;;;13.60;99.90;;;;;;5096287;28;20142;-81
2021/10/05 06:42:13;;;;;;;6.82;4.53;;;13.50;99.90;;;;;;5095998;28;20376;-82
2021/10/05 06:44:40;;;;;;;8.55;4.68;;;13.60;99.90;;;;;;5096483;28;20027;-81
2021/10/05 06:47:05;;;;;;;9.68;5.13;;;13.60;99.90;;;;;;5095757;28;20024;-81
2021/10/05 06:49:31;;;;;;;7.53;5.10;;;13.60;99.90;;;;;;5096232;28;20391;-81
2021/10/05 06:51:57;;;;;;;8.90;5.28;;;13.60;99.90;;;;;;5094978;28;20457;-81
2021/10/05 06:54:23;;;;;;;10.73;5.88;;;13.70;99.90;;;;;;5095973;28;20044;-82
2021/10/05 06:56:48;;;;;;;9.20;5.18;;;13.80;99.90;;;;;;5098985;28;20417;-81
2021/10/05 06:59:14;;;;;;;10.75;5.45;;;13.80;99.90;;;;;;5094406;28;20058;-81
2021/10/05 07:01:41;;;;;;;12.98;6.18;;;13.90;99.90;;;;;;5095482;28;20063;-82
2021/10/05 07:04:06;;;;;;;11.43;6.00;;;14.00;99.90;;;;;;5095835;28;20024;-81
2021/10/05 07:06:32;;;;;;;10.15;5.88;;;13.90;99.90;;;;;;5096133;28;20021;-80
2021/10/05 07:08:58;;;;;;;12.40;7.15;;;13.90;99.90;;;;;;5093858;28;20027;-81
2021/10/05 07:11:24;;;;;;;11.77;6.53;;;14.00;99.90;;;;;;5093905;28;20450;-81
2021/10/05 07:13:50;;;;;;;10.77;6.03;;;14.00;99.90;;;;;;5096231;28;20032;-80
2021/10/05 07:16:15;;;;;;;8.52;5.25;;;14.00;99.90;;;;;;5096074;28;20266;-81
2021/10/05 07:18:41;;;;;;;10.93;5.57;;;14.00;99.90;;;;;;5096651;28;20031;-80
2021/10/05 07:21:08;;;;;;;8.43;4.85;;;14.00;99.90;;;;;;5096013;28;20035;-81
2021/10/05 07:23:33;;;;;;;6.97;4.70;;;13.90;99.90;;;;;;5097180;28;20028;-79
2021/10/05 07:25:59;;;;;;;7.88;4.43;;;14.00;99.90;;;;;;5129419;27;20035;-81
2021/10/05 07:28:25;;;;;;;7.78;4.28;;;13.90;99.90;;;;;;5109650;28;20028;-82
2021/10/05 07:30:50;;;;;;;5.60;3.83;;;14.00;99.90;;;;;;5116139;28;20467;-84
2021/10/05 07:33:16;;;;;;;7.13;4.45;;;13.90;99.90;;;;;;5102656;28;20073;-81
2021/10/05 07:35:42;;;;;;;10.38;4.35;;;13.90;99.90;;;;;;5095784;28;20459;-81
2021/10/05 07:38:08;;;;;;;6.25;3.60;;;13.90;99.90;;;;;;5128858;27;20051;-81
2021/10/05 07:40:34;;;;;;;9.57;3.97;;;14.00;99.90;;;;;;5096460;28;20035;-81
2021/10/05 07:43:01;;;;;;;7.53;3.83;;;13.90;99.90;;;;;;5106674;28;20505;-82
2021/10/05 07:45:29;;;;;;;8.30;4.88;;;14.00;99.90;;;;;;5109084;28;20023;-80
2021/10/05 07:47:55;;;;;;;8.20;4.40;;;14.00;99.90;;;;;;5112775;28;20025;-81
2021/10/05 07:50:22;;;;;;;8.25;4.75;;;14.00;99.90;;;;;;5111844;28;20012;-82
2021/10/05 07:52:48;;;;;;;7.15;4.70;;;14.00;99.90;;;;;;5094874;28;20044;-81
2021/10/05 07:55:14;;;;;;;8.98;5.28;;;14.00;99.90;;;;;;5095018;28;20042;-81
2021/10/05 07:57:40;;;;;;;9.73;6.05;;;14.00;99.90;;;;;;5094025;28;20130;-81
2021/10/05 08:00:07;;;;;;;13.55;6.50;;;14.00;99.90;;;;;;5097899;28;20028;-81
2021/10/05 08:02:33;;;;;;;10.40;6.00;;;14.00;99.90;;;;;;5095275;28;20097;-81
2021/10/05 08:04:59;;;;;;;10.95;5.45;;;13.90;99.90;;;;;;5095928;28;20488;-82
2021/10/05 08:07:26;;;;;;;10.18;5.20;;;13.90;99.90;;;;;;5095180;28;20036;-83
2021/10/05 08:09:56;;;;;;;10.05;5.13;;;13.90;99.90;;;;;;5094258;28;20024;-81
2021/10/05 08:12:23;;;;;;;9.50;4.40;;;13.90;99.90;;;;;;5106827;28;20097;-81
2021/10/05 08:14:50;;;;;;;10.50;5.05;;;13.90;99.90;;;;;;5102359;28;20384;-82
2021/10/05 08:17:17;;;;;;;9.77;5.25;;;14.00;99.90;;;;;;5103914;28;20480;-81
2021/10/05 08:19:42;;;;;;;8.23;4.78;;;14.00;99.90;;;;;;5103551;28;20027;-81
2021/10/05 08:22:08;;;;;;;9.55;5.15;;;14.10;99.90;;;;;;5094948;28;20481;-80
2021/10/05 08:24:35;;;;;;;8.38;4.68;;;14.10;99.90;;;;;;5101511;28;20032;-81
2021/10/05 08:27:01;;;;;;;8.05;4.60;;;14.10;99.90;;;;;;5103371;28;20054;-84
2021/10/05 08:29:27;;;;;;;10.48;5.18;;;14.20;99.90;;;;;;5090171;28;20028;-81
2021/10/05 08:31:52;;;;;;;8.35;4.40;;;14.20;99.90;;;;;;5094166;28;20144;-80
2021/10/05 08:34:18;;;;;;;7.57;4.15;;;14.30;99.90;;;;;;5095580;28;20102;-84
2021/10/05 08:36:45;;;;;;;6.78;4.22;;;14.20;99.90;;;;;;5094273;28;20028;-81
2021/10/05 08:39:14;;;;;;;6.70;4.00;;;14.30;99.90;;;;;;5092544;28;20020;-81
2021/10/05 08:41:43;;;;;;;6.43;3.85;;;14.30;99.90;;;;;;5092866;28;20397;-81
2021/10/05 08:44:09;;;;;;;6.95;4.00;;;14.40;99.90;;;;;;5099415;28;20023;-80
2021/10/05 08:46:37;;;;;;;6.30;4.20;;;14.40;99.90;;;;;;5115252;28;20472;-80
2021/10/05 08:49:03;;;;;;;6.10;3.80;;;14.50;99.90;;;;;;5104294;28;20115;-81
2021/10/05 08:51:28;;;;;;;6.40;3.70;;;14.50;99.90;;;;;;5093740;28;20436;-81
2021/10/05 08:53:54;;;;;;;5.35;2.78;;;14.50;99.90;;;;;;5095822;28;20028;-81
2021/10/05 08:56:20;;;;;;;5.72;2.95;;;14.50;99.90;;;;;;5095264;28;20046;-82
2021/10/05 08:58:45;;;;;;;4.45;2.88;;;14.50;99.90;;;;;;5096899;28;20024;-82
2021/10/05 09:01:13;;;;;;;4.03;2.47;;;14.50;99.90;;;;;;5104911;28;20131;-83
2021/10/05 09:03:51;;;;;;;7.68;3.13;;;14.60;99.90;;;;;;5132302;27;20028;-83
2021/10/05 09:06:18;;;;;;;2.60;2.15;;;14.60;99.90;;;;;;5104585;28;20532;-83
2021/10/05 09:08:44;;;;;;;3.10;2.28;;;14.70;99.90;;;;;;5148691;27;20024;-82
2021/10/05 09:11:11;;;;;;;4.05;2.03;;;14.70;99.90;;;;;;5114389;28;20023;-82
2021/10/05 09:13:41;;;;;;;3.80;2.17;;;14.80;99.90;;;;;;5108436;28;20024;-81
2021/10/05 09:16:25;;;;;;;3.08;1.88;;;14.90;99.90;;;;;;5123883;27;20031;-82
2021/10/05 09:18:57;;;;;;;3.58;1.80;;;15.00;99.90;;;;;;5101581;28;20024;-80
2021/10/05 09:21:26;;;;;;;3.40;1.90;;;15.00;99.90;;;;;;5095939;28;20028;-82
2021/10/05 09:23:57;;;;;;;2.97;2.17;;;15.00;99.90;;;;;;5101675;28;20027;-83
2021/10/05 09:26:40;;;;;;;4.72;1.88;;;15.10;99.80;;;;;;5101270;28;20108;-82
2021/10/05 09:29:15;;;;;;;2.22;1.80;;;15.20;99.70;;;;;;5132536;27;20031;-83
2021/10/05 09:32:08;;;;;;;3.63;1.88;;;15.30;99.50;;;;;;5137245;27;20063;-82
2021/10/05 09:34:50;;;;;;;2.50;1.90;;;15.40;99.30;;;;;;5097567;28;20077;-82
2021/10/05 09:37:27;;;;;;;3.55;2.30;;;15.30;98.50;;;;;;5099750;28;20028;-83
2021/10/05 09:39:53;;;;;;;3.33;2.00;;;15.40;98.80;;;;;;5091361;28;20457;-83
2021/10/05 09:42:40;;;;;;;6.32;2.28;;;15.30;98.10;;;;;;5092477;28;20031;-82
2021/10/05 09:45:27;;;;;;;2.20;1.90;;;15.30;98.20;;;;;;5093837;28;20055;-81
2021/10/05 09:47:55;;;;;;;3.92;1.83;;;15.30;98.30;;;;;;5104749;28;20377;-81
2021/10/05 09:50:34;;;;;;;2.85;1.65;;;15.40;98.60;;;;;;5102248;28;20024;-82
2021/10/05 09:53:05;;;;;;;3.47;1.75;;;15.50;98.00;;;;;;5133265;27;20032;-88
2021/10/05 09:55:33;;;;;;;2.95;2.17;;;15.50;97.60;;;;;;5077872;28;20020;-80
2021/10/05 09:58:00;;;;;;;3.33;1.90;;;15.50;97.80;;;;;;5088535;28;20048;-82
2021/10/05 10:00:28;;;;;;;2.40;1.80;;;15.50;97.60;;;;;;5098510;28;20032;-81
2021/10/05 10:02:54;;;;;;;3.55;2.20;;;15.50;97.60;;;;;;5086862;28;20029;-82
2021/10/05 10:05:22;;;;;;;4.82;1.90;;;15.40;97.50;;;;;;5096945;28;20181;-82
2021/10/05 10:07:50;;;;;;;2.33;1.60;;;15.50;97.80;;;;;;5092784;28;20058;-83
2021/10/05 10:10:23;;;;;;;4.35;2.30;;;15.60;97.80;;;;;;5092878;28;20024;-81
2021/10/05 10:12:54;;;;;;;2.97;1.80;;;15.50;97.40;;;;;;5093653;28;20055;-83
2021/10/05 10:15:24;;;;;;;3.67;2.42;;;15.50;97.70;;;;;;5091911;28;20276;-82
2021/10/05 10:17:50;;;;;;;2.25;1.55;;;15.60;98.00;;;;;;5085185;28;20028;-86
2021/10/05 10:20:24;;;;;;;2.40;1.40;;;15.60;97.90;;;;;;5127944;27;20024;-82
2021/10/05 10:22:50;;;;;;;2.92;1.58;;;15.70;97.00;;;;;;5131700;27;20534;-81
2021/10/05 10:25:24;;;;;;;1.13;0.90;;;15.80;96.80;;;;;;5110319;28;20024;-83
2021/10/05 10:27:57;;;;;;;1.85;1.17;;;15.90;96.40;;;;;;5137186;27;20024;-83
2021/10/05 10:30:28;;;;;;;1.30;1.10;;;15.90;96.30;;;;;;5108288;28;20024;-82
2021/10/05 10:33:00;;;;;;;1.67;1.17;;;16.00;96.00;;;;;;5096225;28;20028;-82
2021/10/05 10:35:26;;;;;;;1.25;0.75;;;15.90;95.80;;;;;;5140123;27;20020;-82
2021/10/05 10:37:53;;;;;;;2.08;0.82;;;15.90;95.80;;;;;;5103886;28;20020;-82
2021/10/05 10:40:32;;;;;;;0.70;0.70;;;15.80;95.90;;;;;;5108628;28;20024;-82
2021/10/05 10:43:08;;;;;;;1.92;0.50;;;15.80;96.00;;;;;;5093756;28;20526;-82
2021/10/05 10:45:45;;;;;;;0.52;0.40;;;15.60;95.90;;;;;;5094377;28;20570;-82
2021/10/05 10:48:11;;;;;;;0.70;0.50;;;15.60;95.80;;;;;;5098652;28;20112;-83
2021/10/05 10:50:37;;;;;;;1.20;0.40;;;15.60;96.10;;;;;;5092300;28;20078;-82
2021/10/05 10:53:07;;;;;;;0.50;0.40;;;15.70;95.60;;;;;;5107780;28;20071;-82
2021/10/05 10:55:35;;;;;;;0.75;0.40;;;15.70;96.00;;;;;;5127266;27;20115;-80
2021/10/05 10:58:01;;;;;;;0.70;0.52;;;15.80;95.20;;;;;;5074087;28;20110;-86
2021/10/05 11:00:28;;;;;;;2.35;0.57;;;15.90;95.40;;;;;;5105095;28;20454;-82
2021/10/05 11:02:55;;;;;;;1.05;0.55;;;16.00;95.20;;;;;;5096869;28;20029;-82
2021/10/05 11:05:22;;;;;;;0.43;0.30;;;16.00;94.50;;;;;;5107845;28;20019;-82
2021/10/05 11:07:49;;;;;;;1.15;0.40;;;16.00;94.80;;;;;;5111155;28;20057;-82
2021/10/05 11:10:17;;;;;;;1.35;0.40;;;16.20;94.40;;;;;;5095845;28;20039;-82
2021/10/05 11:12:54;;;;;;;0.70;0.43;;;16.20;94.50;;;;;;5109000;28;20030;-82
2021/10/05 11:15:41;;;;;;;1.02;0.45;;;16.20;94.60;;;;;;5135741;27;20081;-82
2021/10/05 11:18:10;;;;;;;3.05;0.50;;;16.30;94.60;;;;;;5112623;28;20024;-83
2021/10/05 11:20:59;;;;;;;0.85;0.30;;;16.20;94.50;;;;;;5112247;28;20034;-86
2021/10/05 11:23:26;;;;;;;2.28;0.40;;;16.20;94.40;;;;;;5106592;28;20030;-82
2021/10/05 11:25:53;;;;;;;0.43;0.20;;;16.20;94.40;;;;;;5110522;28;20028;-82
2021/10/05 11:28:22;;;;;;;1.40;0.40;;;16.10;94.50;;;;;;5100920;28;20110;-83
2021/10/05 11:30:56;;;;;;;1.17;0.47;;;16.10;94.70;;;;;;5106470;28;20024;-82
2021/10/05 11:33:32;;;;;;;0.50;0.38;;;16.00;94.60;;;;;;5093525;28;20350;-82
2021/10/05 11:36:17;;;;;;;0.30;0.30;;;16.10;94.80;;;;;;5103563;28;21330;-83
2021/10/05 11:38:43;;;;;;;0.93;0.30;;;16.10;95.20;;;;;;5112694;28;20028;-82
2021/10/05 11:41:10;;;;;;;0.43;0.30;;;16.00;95.20;;;;;;5103690;28;20063;-82
2021/10/05 11:43:44;;;;;;;0.80;0.55;;;16.10;95.10;;;;;;5095331;28;20081;-82
2021/10/05 11:46:14;;;;;;;0.30;0.30;;;16.30;95.20;;;;;;5095015;28;20070;-82
2021/10/05 11:48:42;;;;;;;0.95;0.40;;;16.40;95.10;;;;;;5090167;28;20028;-82
2021/10/05 11:51:08;;;;;;;0.82;0.50;;;16.50;94.60;;;;;;5125940;27;20059;-82
2021/10/05 11:53:35;;;;;;;0.90;0.30;;;16.60;94.50;;;;;;5082236;28;20024;-81
2021/10/05 11:56:10;;;;;;;0.60;0.30;;;16.60;94.50;;;;;;5092927;28;20084;-84
2021/10/05 11:58:50;;;;;;;0.25;0.20;;;16.60;94.10;;;;;;5079088;28;20380;-85
2021/10/05 12:01:27;;;;;;;0.28;0.20;;;16.60;93.60;;;;;;5088279;28;20096;-82
2021/10/05 12:04:07;;;;;;;0.57;0.50;;;16.60;93.70;;;;;;5089851;28;20111;-82
2021/10/05 12:06:34;;;;;;;0.55;0.30;;;16.50;93.10;;;;;;5107079;28;20023;-82
2021/10/05 12:09:02;;;;;;;0.45;0.30;;;16.60;93.30;;;;;;5093829;28;20069;-82
2021/10/05 12:11:46;;;;;;;0.30;0.20;;;16.70;92.70;;;;;;5092867;28;20023;-82
2021/10/05 12:14:14;;;;;;;0.50;0.30;;;16.70;92.50;;;;;;5090802;28;20028;-81
2021/10/05 12:16:52;;;;;;;0.28;0.20;;;16.80;93.20;;;;;;5104296;28;20028;-81
2021/10/05 12:19:26;;;;;;;0.40;0.30;;;16.80;93.00;;;;;;5074120;28;20052;-82
2021/10/05 12:21:57;;;;;;;0.47;0.30;;;16.70;93.00;;;;;;5075559;28;20024;-82
2021/10/05 12:24:59;;;;;;;0.63;0.40;;;16.70;93.40;;;;;;5074605;28;20496;-83
2021/10/05 12:27:25;;;;;;;0.20;0.20;;;16.80;93.40;;;;;;5071087;28;20115;-81
2021/10/05 12:30:15;;;;;;;0.70;0.50;;;17.10;92.80;;;;;;5090580;28;20047;-80
2021/10/05 12:32:44;;;;;;;0.50;0.30;;;17.50;92.50;;;;;;5103143;28;20032;-81
2021/10/05 12:35:29;;;;;;;0.35;0.30;;;17.80;91.80;;;;;;5094040;28;20047;-81
2021/10/05 12:38:14;;;;;;;0.55;0.30;;;18.20;90.80;;;;;;5099248;28;20039;-81
2021/10/05 12:40:55;;;;;;;0.35;0.28;;;18.50;90.10;;;;;;5103660;28;20476;-82
2021/10/05 12:43:39;;;;;;;0.70;0.30;;;18.60;88.80;;;;;;5114025;28;20043;-82
2021/10/05 12:46:08;;;;;;;2.38;0.30;;;19.00;87.20;;;;;;5098302;28;20035;-84
2021/10/05 12:48:44;;;;;;;0.43;0.40;;;19.30;85.70;;;;;;5094528;28;20028;-82
2021/10/05 12:51:10;;;;;;;2.92;0.20;;;20.30;83.50;;;;;;5098666;28;20065;-82
2021/10/05 12:53:36;;;;;;;0.50;0.30;;;20.70;81.60;;;;;;5095035;28;20099;-82